Time;durP1;ratioP1;P1;durP2;ratioP2;P2;SDS_P1;SDS_P2;PMS_P1;PMS_P2;Temp;Humidity;BMP_temperature;BMP_pressure;BME280_temperature;BME280_humidity;BME280_pressure;Samples;Min_cycle;Max_cycle;Signal;HPM_P1;HPM_P2
2021/08/25 00:01:19;;;;;;;11.70;9.47;;;;;;;;;;4944207;29;20555;-85
2021/08/25 00:04:29;;;;;;;10.53;9.43;;;;;;;;;;4933729;29;20526;-85
2021/08/25 00:07:33;;;;;;;10.13;9.13;;;;;;;;;;4944409;29;20187;-84
2021/08/25 00:10:37;;;;;;;11.23;9.37;;;;;;;;;;4955366;28;20235;-84
2021/08/25 00:13:41;;;;;;;11.90;9.37;;;;;;;;;;4955415;29;20203;-85
2021/08/25 00:16:45;;;;;;;11.27;9.23;;;;;;;;;;4944401;29;20179;-85
2021/08/25 00:19:49;;;;;;;11.83;9.10;;;;;;;;;;4933580;29;20195;-84
2021/08/25 00:22:53;;;;;;;15.10;9.93;;;;;;;;;;4944199;29;20183;-84
2021/08/25 00:25:58;;;;;;;11.50;9.97;;;;;;;;;;4944370;29;20179;-84
2021/08/25 00:29:03;;;;;;;13.77;10.03;;;;;;;;;;4944643;29;20192;-84
2021/08/25 00:32:07;;;;;;;15.47;10.93;;;;;;;;;;4932705;29;20242;-85
2021/08/25 00:35:11;;;;;;;16.13;11.40;;;;;;;;;;4966078;28;20202;-85
2021/08/25 00:38:15;;;;;;;11.80;10.13;;;;;;;;;;4966027;28;20223;-84
2021/08/25 00:41:19;;;;;;;14.23;10.57;;;;;;;;;;4943608;29;20245;-85
2021/08/25 00:44:23;;;;;;;11.83;10.53;;;;;;;;;;4955725;29;20556;-85
2021/08/25 00:47:30;;;;;;;12.00;9.87;;;;;;;;;;4933042;29;20199;-85
2021/08/25 00:50:35;;;;;;;13.90;10.33;;;;;;;;;;4932802;28;20227;-85
2021/08/25 00:53:40;;;;;;;14.27;10.30;;;;;;;;;;4944264;29;20642;-85
2021/08/25 00:56:48;;;;;;;13.17;10.80;;;;;;;;;;4943751;29;20195;-85
2021/08/25 00:59:53;;;;;;;12.93;9.73;;;;;;;;;;4955189;29;20650;-84
2021/08/25 01:03:08;;;;;;;11.13;9.53;;;;;;;;;;4943947;29;20655;-84
2021/08/25 01:06:19;;;;;;;12.43;10.60;;;;;;;;;;4943939;29;20192;-84
2021/08/25 01:09:23;;;;;;;11.77;10.27;;;;;;;;;;4943407;29;20558;-84
2021/08/25 01:12:27;;;;;;;12.07;9.67;;;;;;;;;;4932415;29;20234;-84
2021/08/25 01:15:36;;;;;;;11.43;9.63;;;;;;;;;;4935978;29;20207;-84
2021/08/25 01:18:41;;;;;;;14.13;9.37;;;;;;;;;;4947275;29;20199;-84
2021/08/25 01:21:47;;;;;;;10.83;9.10;;;;;;;;;;4936338;29;20688;-84
2021/08/25 01:24:53;;;;;;;10.80;9.53;;;;;;;;;;4958330;29;20631;-84
2021/08/25 01:28:02;;;;;;;15.83;9.57;;;;;;;;;;4946958;29;20204;-84
2021/08/25 01:31:08;;;;;;;10.20;9.03;;;;;;;;;;4947182;28;20227;-84
2021/08/25 01:34:12;;;;;;;11.00;8.90;;;;;;;;;;4946919;29;20180;-84
2021/08/25 01:37:16;;;;;;;13.53;8.63;;;;;;;;;;4957830;29;20183;-84
2021/08/25 01:40:20;;;;;;;11.40;9.87;;;;;;;;;;4935528;28;20187;-84
2021/08/25 01:43:24;;;;;;;11.77;9.57;;;;;;;;;;4946809;29;20179;-84
2021/08/25 01:46:31;;;;;;;12.57;8.33;;;;;;;;;;4946762;29;20191;-84
2021/08/25 01:49:35;;;;;;;11.30;8.97;;;;;;;;;;4946409;29;20199;-84
2021/08/25 01:52:39;;;;;;;10.60;8.33;;;;;;;;;;4945988;29;20219;-84
2021/08/25 01:55:44;;;;;;;11.07;8.60;;;;;;;;;;4946530;29;20187;-84
2021/08/25 01:58:49;;;;;;;9.33;7.97;;;;;;;;;;4935521;29;20180;-84
2021/08/25 02:01:53;;;;;;;11.07;9.10;;;;;;;;;;4946263;29;20223;-84
2021/08/25 02:04:57;;;;;;;12.27;8.30;;;;;;;;;;4957409;29;20175;-84
2021/08/25 02:08:01;;;;;;;11.00;8.60;;;;;;;;;;4946342;29;20206;-85
2021/08/25 02:11:05;;;;;;;10.90;8.47;;;;;;;;;;4957212;28;20223;-84
2021/08/25 02:14:10;;;;;;;11.90;8.90;;;;;;;;;;4946352;29;20180;-84
2021/08/25 02:17:14;;;;;;;9.70;8.47;;;;;;;;;;4946458;29;20176;-85
2021/08/25 02:20:18;;;;;;;9.73;8.13;;;;;;;;;;4946108;28;20187;-84
2021/08/25 02:23:22;;;;;;;18.77;8.20;;;;;;;;;;4946036;29;20176;-84
2021/08/25 02:26:26;;;;;;;10.50;7.77;;;;;;;;;;4955664;28;20203;-85
2021/08/25 02:29:30;;;;;;;10.77;8.50;;;;;;;;;;4956827;29;20515;-84
2021/08/25 02:32:34;;;;;;;10.97;7.97;;;;;;;;;;4967790;28;20215;-84
2021/08/25 02:35:38;;;;;;;9.90;7.43;;;;;;;;;;4945721;29;20204;-84
2021/08/25 02:38:43;;;;;;;11.57;7.87;;;;;;;;;;4956428;29;20656;-84
2021/08/25 02:41:47;;;;;;;15.77;7.83;;;;;;;;;;4937108;29;20227;-83
2021/08/25 02:44:51;;;;;;;10.23;7.40;;;;;;;;;;4967875;28;20179;-83
2021/08/25 02:47:55;;;;;;;14.00;8.37;;;;;;;;;;4945673;29;20184;-83
2021/08/25 02:51:00;;;;;;;10.67;8.33;;;;;;;;;;4945260;28;20223;-83
2021/08/25 02:54:03;;;;;;;10.17;7.97;;;;;;;;;;4934197;29;20208;-83
2021/08/25 02:57:08;;;;;;;11.37;8.07;;;;;;;;;;4934555;29;20203;-83
2021/08/25 03:00:12;;;;;;;9.47;7.87;;;;;;;;;;4956075;28;20203;-83
2021/08/25 03:03:16;;;;;;;13.03;8.43;;;;;;;;;;4945474;29;20197;-83
2021/08/25 03:06:20;;;;;;;10.00;8.40;;;;;;;;;;4934760;29;20199;-83
2021/08/25 03:09:25;;;;;;;10.40;8.10;;;;;;;;;;4934453;29;20535;-83
2021/08/25 03:12:29;;;;;;;11.63;8.23;;;;;;;;;;4967393;28;20235;-83
2021/08/25 03:15:36;;;;;;;11.13;8.03;;;;;;;;;;4956268;29;20183;-83
2021/08/25 03:18:40;;;;;;;9.23;7.77;;;;;;;;;;4934532;29;20192;-83
2021/08/25 03:21:43;;;;;;;11.97;8.00;;;;;;;;;;4944659;29;20219;-83
2021/08/25 03:24:48;;;;;;;11.87;8.27;;;;;;;;;;4933910;29;20659;-83
2021/08/25 03:27:52;;;;;;;9.93;8.43;;;;;;;;;;4967012;28;20187;-83
2021/08/25 03:30:57;;;;;;;12.57;9.13;;;;;;;;;;4955862;28;20556;-83
2021/08/25 03:34:01;;;;;;;13.73;8.50;;;;;;;;;;4944511;29;20203;-83
2021/08/25 03:37:05;;;;;;;11.90;8.23;;;;;;;;;;4966750;28;20179;-83
2021/08/25 03:40:10;;;;;;;10.90;8.90;;;;;;;;;;4955674;28;20179;-83
2021/08/25 03:43:14;;;;;;;15.07;9.20;;;;;;;;;;4944607;29;20666;-83
2021/08/25 03:46:18;;;;;;;9.13;8.17;;;;;;;;;;4955459;29;20512;-83
2021/08/25 03:49:22;;;;;;;12.80;8.43;;;;;;;;;;4940189;28;20194;-84
2021/08/25 03:52:26;;;;;;;10.30;8.90;;;;;;;;;;4951826;28;20226;-84
2021/08/25 03:55:30;;;;;;;12.30;8.13;;;;;;;;;;4974370;28;20638;-84
2021/08/25 03:58:34;;;;;;;13.00;8.13;;;;;;;;;;4963447;28;20182;-84
2021/08/25 04:01:39;;;;;;;9.50;8.23;;;;;;;;;;4952484;28;20219;-84
2021/08/25 04:04:43;;;;;;;9.40;7.40;;;;;;;;;;4943867;29;20199;-84
2021/08/25 04:07:47;;;;;;;9.60;7.90;;;;;;;;;;4961495;28;20198;-84
2021/08/25 04:10:51;;;;;;;12.83;8.67;;;;;;;;;;4952165;28;20222;-84
2021/08/25 04:13:55;;;;;;;8.67;7.77;;;;;;;;;;4939385;28;20530;-84
2021/08/25 04:16:59;;;;;;;9.97;7.60;;;;;;;;;;4951998;28;20182;-84
2021/08/25 04:20:04;;;;;;;9.80;7.67;;;;;;;;;;4974029;28;20186;-84
2021/08/25 04:23:09;;;;;;;11.50;8.33;;;;;;;;;;4952326;28;20503;-84
2021/08/25 04:26:13;;;;;;;10.90;7.37;;;;;;;;;;4952646;28;20186;-84
2021/08/25 04:29:17;;;;;;;12.13;7.40;;;;;;;;;;4974289;28;20630;-84
2021/08/25 04:32:21;;;;;;;9.50;6.80;;;;;;;;;;4962667;28;20226;-84
2021/08/25 04:35:25;;;;;;;8.10;6.63;;;;;;;;;;4963475;28;20203;-83
2021/08/25 04:38:29;;;;;;;7.80;6.60;;;;;;;;;;4952299;28;20183;-84
2021/08/25 04:41:33;;;;;;;8.43;6.83;;;;;;;;;;4951616;28;20222;-84
2021/08/25 04:44:37;;;;;;;11.47;7.50;;;;;;;;;;4963107;28;20182;-84
2021/08/25 04:47:41;;;;;;;12.90;8.67;;;;;;;;;;4952003;28;20631;-84
2021/08/25 04:50:45;;;;;;;14.20;9.67;;;;;;;;;;4955586;28;20222;-84
2021/08/25 04:53:50;;;;;;;16.60;10.30;;;;;;;;;;4955786;28;20183;-84
2021/08/25 04:56:54;;;;;;;8.37;7.47;;;;;;;;;;4977824;28;20209;-84
2021/08/25 04:59:58;;;;;;;13.60;7.00;;;;;;;;;;4966567;28;20183;-84
2021/08/25 05:03:03;;;;;;;14.40;6.63;;;;;;;;;;4955540;28;20179;-85
2021/08/25 05:06:09;;;;;;;7.27;5.97;;;;;;;;;;4955622;28;20186;-85
2021/08/25 05:09:13;;;;;;;7.33;5.93;;;;;;;;;;4955866;28;20519;-85
2021/08/25 05:12:18;;;;;;;8.77;6.40;;;;;;;;;;4967147;28;20231;-85
2021/08/25 05:15:22;;;;;;;9.13;6.27;;;;;;;;;;4969261;28;20183;-85
2021/08/25 05:18:27;;;;;;;11.70;6.63;;;;;;;;;;4967376;28;20183;-85
2021/08/25 05:21:31;;;;;;;8.80;7.03;;;;;;;;;;4977288;28;20214;-85
2021/08/25 05:24:36;;;;;;;9.67;7.03;;;;;;;;;;4977153;28;20186;-85
2021/08/25 05:27:40;;;;;;;8.57;7.33;;;;;;;;;;4966269;28;20186;-85
2021/08/25 05:30:47;;;;;;;10.73;7.87;;;;;;;;;;4971124;28;20218;-85
2021/08/25 05:33:56;;;;;;;14.03;7.60;;;;;;;;;;4970824;28;20210;-86
2021/08/25 05:37:24;;;;;;;11.33;8.10;;;;;;;;;;4970542;28;20662;-86
2021/08/25 05:40:29;;;;;;;12.50;8.77;;;;;;;;;;4969869;28;20226;-86
2021/08/25 05:43:34;;;;;;;10.40;8.10;;;;;;;;;;4958268;28;20195;-85
2021/08/25 05:46:38;;;;;;;14.60;9.37;;;;;;;;;;4969538;28;20202;-86
2021/08/25 05:49:45;;;;;;;12.60;8.67;;;;;;;;;;4969698;28;20202;-86
2021/08/25 05:52:51;;;;;;;13.07;8.73;;;;;;;;;;4969282;28;20210;-86
2021/08/25 05:55:58;;;;;;;13.03;8.63;;;;;;;;;;4969631;28;20186;-86
2021/08/25 05:59:01;;;;;;;11.97;9.60;;;;;;;;;;4968070;28;20183;-86
2021/08/25 06:02:05;;;;;;;10.93;8.90;;;;;;;;;;4976361;28;20226;-85
2021/08/25 06:05:12;;;;;;;13.60;9.67;;;;;;;;;;4965967;28;20182;-86
2021/08/25 06:08:16;;;;;;;11.63;8.63;;;;;;;;;;4977075;28;20187;-84
2021/08/25 06:11:20;;;;;;;11.97;9.27;;;;;;;;;;4964942;28;20214;-84
2021/08/25 06:14:25;;;;;;;12.53;8.93;;;;;;;;;;4976346;28;20183;-85
2021/08/25 06:17:31;;;;;;;12.47;9.33;;;;;;;;;;4978688;28;20182;-86
2021/08/25 06:20:36;;;;;;;12.63;9.50;;;;;;;;;;4976804;28;20215;-86
2021/08/25 06:23:40;;;;;;;11.30;9.23;;;;;;;;;;4965284;28;20179;-85
2021/08/25 06:26:44;;;;;;;10.20;8.47;;;;;;;;;;4965173;28;20524;-86
2021/08/25 06:29:49;;;;;;;12.13;8.60;;;;;;;;;;4964979;28;20183;-86
2021/08/25 06:32:53;;;;;;;11.03;8.77;;;;;;;;;;4975895;28;20210;-86
2021/08/25 06:35:57;;;;;;;12.23;8.03;;;;;;;;;;4965343;28;20634;-86
2021/08/25 06:39:02;;;;;;;14.47;8.33;;;;;;;;;;4963946;28;20183;-84
2021/08/25 06:42:06;;;;;;;9.67;7.10;;;;;;;;;;4962663;28;20226;-86
2021/08/25 06:45:11;;;;;;;10.63;6.87;;;;;;;;;;4962663;28;20203;-85
2021/08/25 06:48:15;;;;;;;12.13;6.43;;;;;;;;;;4962695;28;20534;-85
2021/08/25 06:51:19;;;;;;;8.93;6.37;;;;;;;;;;4962249;28;20222;-85
2021/08/25 06:54:23;;;;;;;7.47;5.63;;;;;;;;;;4962761;28;20179;-85
2021/08/25 06:57:28;;;;;;;8.83;5.97;;;;;;;;;;4962269;28;20527;-85
2021/08/25 07:00:32;;;;;;;5.87;5.27;;;;;;;;;;4962339;28;20223;-85
2021/08/25 07:03:36;;;;;;;9.20;5.23;;;;;;;;;;4962141;28;20182;-85
2021/08/25 07:06:40;;;;;;;7.87;5.33;;;;;;;;;;4962437;28;20187;-85
2021/08/25 07:09:44;;;;;;;9.03;4.90;;;;;;;;;;4962322;28;20182;-85
2021/08/25 07:12:49;;;;;;;7.00;5.20;;;;;;;;;;4972416;28;20214;-85
2021/08/25 07:15:53;;;;;;;6.80;4.53;;;;;;;;;;4962339;28;20183;-86
2021/08/25 07:18:57;;;;;;;5.83;4.50;;;;;;;;;;4962152;28;20186;-86
2021/08/25 07:22:02;;;;;;;9.33;5.73;;;;;;;;;;4962144;28;20210;-86
2021/08/25 07:25:07;;;;;;;7.10;4.83;;;;;;;;;;4973213;28;20183;-86
2021/08/25 07:28:11;;;;;;;5.33;4.33;;;;;;;;;;4963535;28;20187;-86
2021/08/25 07:31:16;;;;;;;8.40;4.60;;;;;;;;;;4974749;28;20222;-87
2021/08/25 07:34:19;;;;;;;6.90;3.93;;;;;;;;;;4974944;28;20222;-86
2021/08/25 07:37:24;;;;;;;8.60;3.67;;;;;;;;;;4975112;28;20178;-89
2021/08/25 07:40:28;;;;;;;6.17;4.23;;;;;;;;;;4963299;28;20226;-87
2021/08/25 07:43:32;;;;;;;6.17;3.70;;;;;;;;;;4963997;28;20507;-87
2021/08/25 07:46:36;;;;;;;6.27;3.97;;;;;;;;;;4964158;28;20190;-87
2021/08/25 07:49:40;;;;;;;4.83;3.60;;;;;;;;;;4963893;28;20179;-86
2021/08/25 07:52:44;;;;;;;6.30;3.87;;;;;;;;;;4974581;28;20210;-88
2021/08/25 07:55:48;;;;;;;6.67;3.90;;;;;;;;;;4963374;28;20178;-87
2021/08/25 07:58:53;;;;;;;7.87;3.93;;;;;;;;;;4963671;28;20191;-87
2021/08/25 08:01:57;;;;;;;6.77;4.17;;;;;;;;;;4985773;28;20234;-87
2021/08/25 08:05:03;;;;;;;8.07;4.10;;;;;;;;;;4974763;28;20182;-87
2021/08/25 08:08:07;;;;;;;6.00;3.70;;;;;;;;;;4963431;28;20202;-87
2021/08/25 08:11:12;;;;;;;7.17;3.67;;;;;;;;;;4974688;28;20226;-87
2021/08/25 08:14:16;;;;;;;6.67;3.87;;;;;;;;;;4963487;28;20214;-86
2021/08/25 08:17:22;;;;;;;5.67;3.80;;;;;;;;;;4963656;28;20183;-86
2021/08/25 08:20:26;;;;;;;8.87;4.03;;;;;;;;;;4962957;28;20642;-86
2021/08/25 08:23:32;;;;;;;6.40;3.67;;;;;;;;;;4963714;28;20179;-86
2021/08/25 08:26:36;;;;;;;6.93;4.07;;;;;;;;;;4967570;28;20194;-86
2021/08/25 08:29:40;;;;;;;7.60;3.57;;;;;;;;;;4967298;28;20630;-86
2021/08/25 08:32:44;;;;;;;9.03;3.33;;;;;;;;;;4978357;28;20190;-86
2021/08/25 08:35:48;;;;;;;5.93;3.77;;;;;;;;;;4989467;28;20179;-86
2021/08/25 08:38:52;;;;;;;5.60;3.93;;;;;;;;;;4966972;28;20178;-87
2021/08/25 08:41:56;;;;;;;6.83;3.77;;;;;;;;;;4991435;23;20238;-86
2021/08/25 08:45:03;;;;;;;5.23;3.80;;;;;;;;;;4966527;28;20190;-87
2021/08/25 08:48:09;;;;;;;7.20;3.90;;;;;;;;;;4965319;28;20203;-87
2021/08/25 08:51:20;;;;;;;10.37;4.20;;;;;;;;;;4966712;28;20230;-87
2021/08/25 08:54:24;;;;;;;5.97;4.20;;;;;;;;;;4955789;28;20563;-87
2021/08/25 08:57:28;;;;;;;8.17;3.50;;;;;;;;;;4966764;28;20186;-87
2021/08/25 09:00:33;;;;;;;5.23;3.40;;;;;;;;;;4978145;28;20174;-89
2021/08/25 09:03:41;;;;;;;5.23;3.67;;;;;;;;;;4966619;28;20183;-87
2021/08/25 09:06:45;;;;;;;6.87;3.80;;;;;;;;;;4955447;28;20179;-88
2021/08/25 09:09:53;;;;;;;5.80;3.83;;;;;;;;;;4966474;28;20515;-87
2021/08/25 09:13:02;;;;;;;5.63;3.33;;;;;;;;;;4955270;28;20260;-87
2021/08/25 09:16:07;;;;;;;7.33;3.97;;;;;;;;;;4966274;28;20183;-86
2021/08/25 09:19:14;;;;;;;6.10;3.47;;;;;;;;;;4966357;28;20177;-87
2021/08/25 09:22:19;;;;;;;12.93;3.90;;;;;;;;;;4955038;28;20222;-87
2021/08/25 09:25:31;;;;;;;11.23;4.07;;;;;;;;;;4977517;28;20189;-86
2021/08/25 09:28:37;;;;;;;6.97;3.90;;;;;;;;;;4966419;28;20188;-87
2021/08/25 09:31:43;;;;;;;5.73;3.60;;;;;;;;;;4954921;28;20232;-87
2021/08/25 09:34:55;;;;;;;7.03;3.90;;;;;;;;;;4965345;28;20215;-87
2021/08/25 09:38:02;;;;;;;6.67;3.87;;;;;;;;;;4977075;28;20189;-87
2021/08/25 09:41:09;;;;;;;5.87;3.50;;;;;;;;;;4965677;28;20196;-87
2021/08/25 09:44:15;;;;;;;6.20;3.80;;;;;;;;;;4954890;28;20183;-87
2021/08/25 09:47:19;;;;;;;5.30;3.67;;;;;;;;;;4954755;28;20193;-87
2021/08/25 09:50:27;;;;;;;8.05;4.13;;;;;;;;;;4965518;28;20188;-87
2021/08/25 09:53:31;;;;;;;5.13;3.50;;;;;;;;;;4954513;28;20221;-87
2021/08/25 09:56:37;;;;;;;8.25;4.13;;;;;;;;;;4965640;28;20184;-86
2021/08/25 09:59:41;;;;;;;6.15;3.58;;;;;;;;;;4977347;28;20514;-87
2021/08/25 10:02:46;;;;;;;5.25;3.38;;;;;;;;;;4965464;28;20548;-87
2021/08/25 10:05:55;;;;;;;8.85;3.67;;;;;;;;;;4954731;28;20185;-87
2021/08/25 10:08:59;;;;;;;5.65;3.15;;;;;;;;;;4965383;28;20190;-88
2021/08/25 10:12:06;;;;;;;4.63;3.45;;;;;;;;;;4954298;28;20554;-87
2021/08/25 10:15:38;;;;;;;5.90;3.70;;;;;;;;;;4965037;28;20219;-89
2021/08/25 10:18:42;;;;;;;5.18;3.55;;;;;;;;;;4965088;28;20176;-88
2021/08/25 10:21:46;;;;;;;7.20;3.72;;;;;;;;;;4954202;28;20230;-88
2021/08/25 10:24:53;;;;;;;7.15;4.00;;;;;;;;;;4965214;28;20181;-87
2021/08/25 10:28:08;;;;;;;6.10;3.70;;;;;;;;;;4954263;28;20189;-88
2021/08/25 10:31:13;;;;;;;5.50;3.50;;;;;;;;;;4966122;28;20199;-89
2021/08/25 10:34:21;;;;;;;6.07;3.65;;;;;;;;;;4953825;28;20204;-89
2021/08/25 10:37:26;;;;;;;4.68;3.55;;;;;;;;;;4964945;28;20192;-89
2021/08/25 10:40:34;;;;;;;7.65;3.78;;;;;;;;;;4953790;28;20185;-89
2021/08/25 10:43:43;;;;;;;6.57;3.92;;;;;;;;;;4964313;28;20176;-89
2021/08/25 10:46:48;;;;;;;7.65;3.55;;;;;;;;;;4952779;28;20530;-89
2021/08/25 10:50:09;;;;;;;3.65;3.00;;;;;;;;;;4964446;28;20628;-88
2021/08/25 10:53:28;;;;;;;7.43;3.10;;;;;;;;;;4964187;28;20217;-89
2021/08/25 10:56:38;;;;;;;6.00;3.38;;;;;;;;;;4953477;28;20189;-89
2021/08/25 10:59:42;;;;;;;4.13;3.00;;;;;;;;;;4964578;28;20181;-89
2021/08/25 11:02:47;;;;;;;5.43;3.38;;;;;;;;;;4964201;28;20222;-89
2021/08/25 11:05:51;;;;;;;5.47;3.47;;;;;;;;;;4964483;28;20194;-89
2021/08/25 11:09:13;;;;;;;4.93;3.20;;;;;;;;;;4953351;28;20633;-89
2021/08/25 11:12:22;;;;;;;6.30;3.53;;;;;;;;;;4963895;28;20221;-89
2021/08/25 11:15:31;;;;;;;5.40;3.28;;;;;;;;;;4963950;28;20207;-88
2021/08/25 11:18:36;;;;;;;4.80;3.10;;;;;;;;;;4964137;28;20196;-89
2021/08/25 11:21:40;;;;;;;5.93;3.15;;;;;;;;;;4963897;28;20219;-89
2021/08/25 11:24:49;;;;;;;4.85;3.08;;;;;;;;;;4963778;28;20178;-88
2021/08/25 11:27:54;;;;;;;5.15;3.63;;;;;;;;;;4953253;28;20538;-89
2021/08/25 11:30:58;;;;;;;5.03;3.35;;;;;;;;;;4963805;28;20193;-89
2021/08/25 11:34:02;;;;;;;5.63;3.80;;;;;;;;;;4952836;28;20214;-89
2021/08/25 11:37:06;;;;;;;7.30;3.65;;;;;;;;;;4974682;28;20190;-89
2021/08/25 11:40:12;;;;;;;5.65;3.58;;;;;;;;;;4952800;28;20204;-89
2021/08/25 11:43:19;;;;;;;7.78;3.90;;;;;;;;;;4952261;28;20233;-89
2021/08/25 11:46:24;;;;;;;4.63;3.63;;;;;;;;;;4963641;28;20181;-89
2021/08/25 11:49:28;;;;;;;6.15;3.42;;;;;;;;;;4952638;28;20636;-89
2021/08/25 11:52:34;;;;;;;4.25;3.15;;;;;;;;;;4963495;28;20230;-89
2021/08/25 11:55:39;;;;;;;5.22;3.03;;;;;;;;;;4963205;28;20686;-89
2021/08/25 11:58:43;;;;;;;6.60;3.03;;;;;;;;;;4974033;28;20194;-89
2021/08/25 12:01:46;;;;;;;4.68;3.28;;;;;;;;;;4952252;28;20224;-89
2021/08/25 12:04:51;;;;;;;5.63;3.80;;;;;;;;;;4951892;28;20175;-89
2021/08/25 12:08:06;;;;;;;5.78;3.67;;;;;;;;;;4963774;28;20185;-89
2021/08/25 12:11:12;;;;;;;5.72;3.92;;;;;;;;;;4952037;28;20176;-89
2021/08/25 12:14:16;;;;;;;4.97;3.38;;;;;;;;;;4963244;28;20208;-89
2021/08/25 12:17:22;;;;;;;6.47;3.72;;;;;;;;;;4963020;28;20185;-89
2021/08/25 12:20:36;;;;;;;5.30;3.60;;;;;;;;;;4952220;28;20181;-89
2021/08/25 12:24:02;;;;;;;6.43;3.67;;;;;;;;;;4952169;28;20617;-89
2021/08/25 12:27:07;;;;;;;6.43;3.20;;;;;;;;;;4963417;28;20185;-89
2021/08/25 12:30:12;;;;;;;4.63;3.13;;;;;;;;;;4952139;28;20186;-89
2021/08/25 12:33:27;;;;;;;7.10;3.22;;;;;;;;;;4963106;28;20224;-89
2021/08/25 12:36:32;;;;;;;6.25;3.70;;;;;;;;;;4963272;28;20183;-89
2021/08/25 12:39:40;;;;;;;10.77;4.22;;;;;;;;;;4963133;28;20186;-89
2021/08/25 12:42:44;;;;;;;4.95;3.33;;;;;;;;;;4962735;28;20578;-89
2021/08/25 12:45:48;;;;;;;4.68;3.47;;;;;;;;;;4963029;28;20204;-89
2021/08/25 12:48:52;;;;;;;5.13;3.75;;;;;;;;;;4963011;28;20181;-89
2021/08/25 12:51:58;;;;;;;5.85;3.90;;;;;;;;;;4951842;28;20562;-89
2021/08/25 12:55:05;;;;;;;8.82;3.47;;;;;;;;;;4951684;28;20222;-89
2021/08/25 12:58:09;;;;;;;6.07;3.72;;;;;;;;;;4951969;28;20189;-89
2021/08/25 13:01:13;;;;;;;5.28;4.00;;;;;;;;;;4951495;28;20186;-89
2021/08/25 13:04:18;;;;;;;5.82;3.88;;;;;;;;;;4962869;28;20181;-89
2021/08/25 13:07:22;;;;;;;6.13;4.05;;;;;;;;;;4962770;28;20182;-89
2021/08/25 13:10:26;;;;;;;5.95;3.50;;;;;;;;;;4953447;28;20182;-89
2021/08/25 13:13:30;;;;;;;6.45;3.65;;;;;;;;;;4966311;28;20178;-89
2021/08/25 13:16:34;;;;;;;4.80;3.15;;;;;;;;;;4955217;28;20529;-89
2021/08/25 13:19:38;;;;;;;7.55;3.55;;;;;;;;;;4966305;28;20541;-89
2021/08/25 13:22:42;;;;;;;7.03;3.47;;;;;;;;;;4954926;28;20225;-88
2021/08/25 13:25:46;;;;;;;5.45;3.40;;;;;;;;;;4965934;28;20182;-89
2021/08/25 13:28:52;;;;;;;5.10;3.17;;;;;;;;;;4966231;28;20206;-89
2021/08/25 13:31:56;;;;;;;7.22;3.72;;;;;;;;;;4955035;28;20562;-89
2021/08/25 13:35:01;;;;;;;5.80;3.50;;;;;;;;;;4954886;28;20211;-88
2021/08/25 13:38:04;;;;;;;7.80;3.50;;;;;;;;;;4965842;28;20208;-89
2021/08/25 13:41:09;;;;;;;4.95;3.45;;;;;;;;;;4954460;28;20208;-89
2021/08/25 13:44:13;;;;;;;7.10;3.90;;;;;;;;;;4965858;28;20183;-88
2021/08/25 13:47:17;;;;;;;6.00;3.50;;;;;;;;;;4954798;28;20183;-89
2021/08/25 13:50:21;;;;;;;6.05;3.80;;;;;;;;;;4977190;28;20186;-89
2021/08/25 13:53:26;;;;;;;5.15;3.80;;;;;;;;;;4954351;28;20527;-89
2021/08/25 13:56:30;;;;;;;5.47;3.80;;;;;;;;;;4976266;28;20190;-89
2021/08/25 13:59:34;;;;;;;5.38;3.80;;;;;;;;;;4954628;28;20183;-89
2021/08/25 14:02:38;;;;;;;5.95;3.65;;;;;;;;;;4965255;28;20222;-89
2021/08/25 14:05:42;;;;;;;5.35;3.40;;;;;;;;;;4965108;28;20189;-89
2021/08/25 14:08:46;;;;;;;6.63;3.65;;;;;;;;;;4954332;28;20210;-89
2021/08/25 14:11:50;;;;;;;5.35;3.60;;;;;;;;;;4954289;28;20233;-90
2021/08/25 14:14:54;;;;;;;5.32;3.40;;;;;;;;;;4954394;28;20205;-89
2021/08/25 14:18:00;;;;;;;6.18;3.40;;;;;;;;;;4965239;28;20191;-89
2021/08/25 14:21:05;;;;;;;9.07;4.10;;;;;;;;;;4964305;28;20614;-89
2021/08/25 14:24:09;;;;;;;7.82;3.78;;;;;;;;;;4954276;28;20178;-89
2021/08/25 14:27:13;;;;;;;6.57;3.85;;;;;;;;;;4953945;28;20203;-89
2021/08/25 14:30:17;;;;;;;6.13;3.90;;;;;;;;;;4965073;28;20517;-89
2021/08/25 14:33:22;;;;;;;6.55;3.97;;;;;;;;;;4964933;28;20193;-89
2021/08/25 14:36:26;;;;;;;5.60;3.90;;;;;;;;;;4964962;28;20542;-89
2021/08/25 14:39:29;;;;;;;4.85;3.22;;;;;;;;;;4953841;28;20530;-89
2021/08/25 14:42:34;;;;;;;4.63;3.63;;;;;;;;;;4987811;23;20578;-84
2021/08/25 14:45:38;;;;;;;4.60;3.50;;;;;;;;;;4965384;28;20645;-84
2021/08/25 14:48:42;;;;;;;4.82;3.38;;;;;;;;;;4976665;28;20194;-84
2021/08/25 14:51:47;;;;;;;6.57;3.83;;;;;;;;;;4977458;28;20219;-84
2021/08/25 14:54:51;;;;;;;4.72;3.20;;;;;;;;;;4965390;28;20209;-84
2021/08/25 14:57:57;;;;;;;6.60;4.07;;;;;;;;;;4976454;28;20202;-84
2021/08/25 15:01:01;;;;;;;5.18;3.67;;;;;;;;;;4953724;28;20536;-84
2021/08/25 15:04:04;;;;;;;5.97;3.50;;;;;;;;;;4976425;28;20526;-84
2021/08/25 15:07:09;;;;;;;9.20;3.80;;;;;;;;;;4975189;28;20182;-84
2021/08/25 15:10:14;;;;;;;5.25;2.95;;;;;;;;;;4961539;28;20212;-83
2021/08/25 15:13:18;;;;;;;5.65;3.20;;;;;;;;;;4965268;28;20218;-83
2021/08/25 15:16:24;;;;;;;4.40;3.08;;;;;;;;;;4964741;28;20225;-84
2021/08/25 15:19:29;;;;;;;4.82;2.90;;;;;;;;;;4963169;28;20188;-83
2021/08/25 15:22:33;;;;;;;4.93;3.00;;;;;;;;;;4962733;28;20216;-83
2021/08/25 15:25:37;;;;;;;4.53;3.05;;;;;;;;;;4973911;28;20201;-82
2021/08/25 15:28:42;;;;;;;4.47;3.47;;;;;;;;;;4960836;28;20839;-83
2021/08/25 15:31:49;;;;;;;5.72;3.50;;;;;;;;;;4965699;28;20647;-84
2021/08/25 15:34:57;;;;;;;4.65;3.38;;;;;;;;;;4954481;29;20188;-85
2021/08/25 15:38:02;;;;;;;7.67;3.10;;;;;;;;;;4943567;29;20202;-83
2021/08/25 15:41:10;;;;;;;5.83;3.60;;;;;;;;;;4933211;29;20187;-83
2021/08/25 15:44:16;;;;;;;6.10;3.30;;;;;;;;;;4933499;29;20191;-83
2021/08/25 15:47:24;;;;;;;4.93;3.27;;;;;;;;;;4930899;29;20193;-83
2021/08/25 15:50:28;;;;;;;6.37;3.40;;;;;;;;;;4942355;29;20188;-83
2021/08/25 15:53:34;;;;;;;5.23;3.30;;;;;;;;;;4942257;29;20217;-83
2021/08/25 15:56:38;;;;;;;4.40;2.67;;;;;;;;;;4941236;29;20221;-83
2021/08/25 15:59:43;;;;;;;4.90;3.43;;;;;;;;;;4952816;29;20192;-83
2021/08/25 16:02:47;;;;;;;6.00;3.43;;;;;;;;;;4952129;29;20219;-83
2021/08/25 16:05:51;;;;;;;4.70;3.13;;;;;;;;;;4941288;29;20608;-83
2021/08/25 16:08:55;;;;;;;5.43;3.53;;;;;;;;;;4951949;29;20520;-83
2021/08/25 16:12:00;;;;;;;4.13;3.00;;;;;;;;;;4940889;29;20223;-83
2021/08/25 16:15:04;;;;;;;7.50;3.20;;;;;;;;;;4930117;29;20179;-83
2021/08/25 16:18:09;;;;;;;5.97;3.27;;;;;;;;;;4929881;29;20196;-83
2021/08/25 16:21:14;;;;;;;6.87;3.40;;;;;;;;;;4952094;29;20183;-83
2021/08/25 16:24:20;;;;;;;7.60;3.13;;;;;;;;;;4934267;29;20659;-84
2021/08/25 16:27:24;;;;;;;5.73;3.50;;;;;;;;;;4933008;29;20187;-83
2021/08/25 16:30:28;;;;;;;5.53;3.27;;;;;;;;;;4956165;29;20179;-83
2021/08/25 16:33:32;;;;;;;4.53;3.40;;;;;;;;;;4945734;29;20227;-84
2021/08/25 16:36:37;;;;;;;4.70;3.03;;;;;;;;;;4957273;29;20322;-83
2021/08/25 16:39:40;;;;;;;4.97;3.10;;;;;;;;;;4946116;29;20188;-83
2021/08/25 16:42:44;;;;;;;5.20;2.90;;;;;;;;;;4944156;29;20227;-83
2021/08/25 16:45:48;;;;;;;7.67;3.20;;;;;;;;;;4936169;29;20179;-83
2021/08/25 16:48:53;;;;;;;6.87;3.27;;;;;;;;;;4948314;29;20206;-83
2021/08/25 16:51:57;;;;;;;5.43;2.90;;;;;;;;;;4937657;29;20219;-83
2021/08/25 16:55:02;;;;;;;4.03;2.70;;;;;;;;;;4959025;29;20199;-83
2021/08/25 16:58:06;;;;;;;5.57;3.23;;;;;;;;;;4948642;29;20187;-83
2021/08/25 17:01:10;;;;;;;4.83;3.17;;;;;;;;;;4937373;29;20638;-83
2021/08/25 17:04:15;;;;;;;7.50;3.60;;;;;;;;;;4959405;29;20188;-83
2021/08/25 17:07:19;;;;;;;13.97;3.33;;;;;;;;;;4948091;29;20183;-83
2021/08/25 17:10:23;;;;;;;7.73;3.47;;;;;;;;;;4937111;29;20184;-83
2021/08/25 17:13:27;;;;;;;6.37;3.40;;;;;;;;;;4937135;29;20682;-83
2021/08/25 17:16:34;;;;;;;6.27;3.13;;;;;;;;;;4947747;29;20211;-83
2021/08/25 17:19:38;;;;;;;5.73;3.10;;;;;;;;;;4958736;29;20203;-83
2021/08/25 17:22:42;;;;;;;4.97;3.00;;;;;;;;;;4947564;29;20227;-83
2021/08/25 17:25:47;;;;;;;7.17;2.90;;;;;;;;;;4959348;29;20183;-83
2021/08/25 17:28:51;;;;;;;5.07;3.17;;;;;;;;;;4936370;29;20199;-83
2021/08/25 17:31:55;;;;;;;4.80;3.00;;;;;;;;;;4958700;29;20694;-84
2021/08/25 17:34:59;;;;;;;5.97;2.80;;;;;;;;;;4945407;29;20654;-83
2021/08/25 17:38:03;;;;;;;5.27;2.90;;;;;;;;;;4946238;29;20678;-84
2021/08/25 17:41:07;;;;;;;5.03;2.90;;;;;;;;;;4953033;29;20203;-83
2021/08/25 17:44:11;;;;;;;6.00;3.20;;;;;;;;;;4950937;28;20199;-83
2021/08/25 17:47:16;;;;;;;5.60;3.17;;;;;;;;;;4951057;28;20654;-85
2021/08/25 17:50:21;;;;;;;7.23;3.03;;;;;;;;;;4962976;28;20634;-84
2021/08/25 17:53:28;;;;;;;5.30;2.60;;;;;;;;;;4962840;28;20214;-85
2021/08/25 17:56:32;;;;;;;7.87;3.10;;;;;;;;;;4973429;28;20555;-85
2021/08/25 17:59:36;;;;;;;6.80;3.37;;;;;;;;;;4962410;28;20206;-85
2021/08/25 18:02:42;;;;;;;5.40;2.90;;;;;;;;;;4963320;28;20222;-85
2021/08/25 18:05:46;;;;;;;5.13;3.33;;;;;;;;;;4954853;29;20176;-85
2021/08/25 18:08:50;;;;;;;4.63;3.13;;;;;;;;;;4954786;29;20187;-84
2021/08/25 18:11:55;;;;;;;8.73;3.00;;;;;;;;;;4949615;28;20226;-84
2021/08/25 18:14:59;;;;;;;5.67;3.40;;;;;;;;;;4973672;28;20222;-84
2021/08/25 18:18:05;;;;;;;5.90;3.63;;;;;;;;;;4962419;28;20195;-84
2021/08/25 18:21:26;;;;;;;4.73;3.10;;;;;;;;;;4962625;28;20206;-85
2021/08/25 18:24:30;;;;;;;5.13;2.93;;;;;;;;;;4962767;28;20206;-84